Time;durP1;ratioP1;P1;durP2;ratioP2;P2;SDS_P1;SDS_P2;PMS_P1;PMS_P2;Temp;Humidity;BMP_temperature;BMP_pressure;BME280_temperature;BME280_humidity;BME280_pressure;Samples;Min_cycle;Max_cycle;Signal;HPM_P1;HPM_P2
2022/07/22 00:02:24;;;;;;;8.10;3.20;;;16.20;99.90;;;;;;5088214;28;20086;-55
2022/07/22 00:04:50;;;;;;;8.60;4.03;;;16.10;99.90;;;;;;5082982;28;20039;-55
2022/07/22 00:07:16;;;;;;;8.18;3.90;;;16.10;99.90;;;;;;5087891;28;20039;-56
2022/07/22 00:09:42;;;;;;;8.57;3.70;;;16.00;99.90;;;;;;5091686;28;20039;-56
2022/07/22 00:12:08;;;;;;;10.85;4.03;;;16.00;99.90;;;;;;5090877;28;20070;-55
2022/07/22 00:14:33;;;;;;;7.85;3.78;;;16.00;99.90;;;;;;5087956;28;20047;-55
2022/07/22 00:16:59;;;;;;;8.95;2.95;;;16.00;99.90;;;;;;5089344;28;20044;-56
2022/07/22 00:19:24;;;;;;;14.55;3.38;;;15.90;99.90;;;;;;5091071;28;20043;-55
2022/07/22 00:21:51;;;;;;;8.25;3.00;;;15.90;99.90;;;;;;5090176;28;20445;-56
2022/07/22 00:24:17;;;;;;;12.25;3.45;;;15.90;99.90;;;;;;5088093;28;20039;-56
2022/07/22 00:26:43;;;;;;;7.80;2.88;;;15.90;99.90;;;;;;5086202;28;20411;-56
2022/07/22 00:29:09;;;;;;;7.03;3.17;;;15.90;99.90;;;;;;5087835;28;20039;-56
2022/07/22 00:31:35;;;;;;;7.72;3.33;;;15.90;99.90;;;;;;5092234;28;20044;-55
2022/07/22 00:34:01;;;;;;;9.20;3.10;;;15.90;99.90;;;;;;5085418;28;20478;-55
2022/07/22 00:36:28;;;;;;;8.13;3.20;;;15.90;99.90;;;;;;5090906;28;20182;-54
2022/07/22 00:38:53;;;;;;;11.35;3.20;;;15.80;99.90;;;;;;5089545;28;20032;-56
2022/07/22 00:41:19;;;;;;;11.52;3.58;;;15.90;99.90;;;;;;5088713;28;20040;-57
2022/07/22 00:43:57;;;;;;;10.35;3.40;;;15.80;99.90;;;;;;5087440;28;20042;-57
2022/07/22 00:46:23;;;;;;;9.90;2.85;;;15.90;99.90;;;;;;5087828;28;20048;-55
2022/07/22 00:48:49;;;;;;;8.85;3.20;;;15.90;99.90;;;;;;5091017;28;20629;-56
2022/07/22 00:51:17;;;;;;;7.88;3.13;;;15.90;99.90;;;;;;5090150;28;20138;-57
2022/07/22 00:53:43;;;;;;;8.00;2.97;;;15.90;99.90;;;;;;5087189;28;20068;-56
2022/07/22 00:56:09;;;;;;;9.38;3.00;;;15.90;99.90;;;;;;5086623;28;20687;-57
2022/07/22 00:58:35;;;;;;;10.25;2.50;;;15.90;99.90;;;;;;5089933;28;20036;-55
2022/07/22 01:01:01;;;;;;;8.75;3.08;;;15.90;99.90;;;;;;5087326;28;20388;-55
2022/07/22 01:03:26;;;;;;;10.38;3.15;;;15.90;99.90;;;;;;5089722;28;20138;-56
2022/07/22 01:05:52;;;;;;;14.85;3.45;;;15.90;99.90;;;;;;5084925;28;20552;-56
2022/07/22 01:08:18;;;;;;;8.90;2.80;;;15.90;99.90;;;;;;5090681;28;20040;-56
2022/07/22 01:10:43;;;;;;;11.50;3.05;;;15.90;99.90;;;;;;5090112;28;20403;-56
2022/07/22 01:13:09;;;;;;;10.70;3.25;;;15.90;99.90;;;;;;5085648;28;20498;-55
2022/07/22 01:15:35;;;;;;;12.75;3.15;;;16.00;99.90;;;;;;5089293;28;20205;-56
2022/07/22 01:18:01;;;;;;;8.20;2.90;;;16.00;99.90;;;;;;5089723;28;20036;-56
2022/07/22 01:20:26;;;;;;;10.13;2.95;;;16.00;99.90;;;;;;5085305;28;20055;-56
2022/07/22 01:22:52;;;;;;;8.05;2.80;;;16.00;99.90;;;;;;5076541;28;20040;-56
2022/07/22 01:25:18;;;;;;;6.95;2.80;;;15.90;99.90;;;;;;5087580;28;20039;-57
2022/07/22 01:27:44;;;;;;;7.18;2.55;;;15.90;99.90;;;;;;5088939;28;20036;-55
2022/07/22 01:30:10;;;;;;;9.98;3.10;;;16.10;99.90;;;;;;5091016;28;20036;-55
2022/07/22 01:32:35;;;;;;;9.55;2.50;;;16.00;99.90;;;;;;5095383;28;20126;-55
2022/07/22 01:35:01;;;;;;;8.63;2.80;;;16.00;99.90;;;;;;5088932;28;20197;-56
2022/07/22 01:37:27;;;;;;;7.20;2.42;;;16.00;99.90;;;;;;5086270;28;20035;-55
2022/07/22 01:39:52;;;;;;;10.23;3.05;;;16.00;99.90;;;;;;5088487;28;20506;-54
2022/07/22 01:42:18;;;;;;;10.02;3.05;;;16.10;99.90;;;;;;5088624;28;20122;-55
2022/07/22 01:44:43;;;;;;;11.27;3.35;;;16.10;99.90;;;;;;5087375;28;20032;-56
2022/07/22 01:47:10;;;;;;;9.50;2.85;;;16.00;99.90;;;;;;5090432;28;20047;-56
2022/07/22 01:49:35;;;;;;;12.57;2.83;;;16.00;99.90;;;;;;5088980;28;20032;-56
2022/07/22 01:52:03;;;;;;;9.85;2.60;;;16.00;99.90;;;;;;5085761;28;20044;-55
2022/07/22 01:54:29;;;;;;;;;;;16.00;99.90;;;;;;5086181;28;20070;-56
2022/07/22 01:56:54;;;;;;;11.82;3.28;;;16.00;99.90;;;;;;5085152;28;19959;-55
2022/07/22 01:59:20;;;;;;;11.25;3.10;;;16.00;99.90;;;;;;5088175;28;20051;-55
2022/07/22 02:01:45;;;;;;;9.23;2.40;;;16.00;99.90;;;;;;5088097;28;20049;-56
2022/07/22 02:04:11;;;;;;;7.78;2.65;;;16.00;99.90;;;;;;5085746;28;20040;-56
2022/07/22 02:06:37;;;;;;;8.30;2.55;;;15.90;99.90;;;;;;5085177;28;20028;-56
2022/07/22 02:09:02;;;;;;;11.25;2.53;;;15.90;99.90;;;;;;5089933;28;20047;-57
2022/07/22 02:11:28;;;;;;;10.50;3.22;;;16.00;99.90;;;;;;5082408;28;20318;-56
2022/07/22 02:13:54;;;;;;;10.18;3.50;;;15.90;99.90;;;;;;5083313;28;20051;-55
2022/07/22 02:16:19;;;;;;;9.68;2.90;;;15.90;99.90;;;;;;5085733;28;20028;-55
2022/07/22 02:18:45;;;;;;;9.07;2.60;;;15.90;99.90;;;;;;5080105;28;20070;-55
2022/07/22 02:21:10;;;;;;;7.68;3.00;;;15.90;99.90;;;;;;5082708;28;20040;-56
2022/07/22 02:23:36;;;;;;;7.15;2.60;;;15.80;99.90;;;;;;5080132;28;20063;-56
2022/07/22 02:26:02;;;;;;;6.40;2.70;;;15.80;99.90;;;;;;5086711;28;20036;-55
2022/07/22 02:28:28;;;;;;;13.90;3.25;;;15.80;99.90;;;;;;5087138;28;20422;-56
2022/07/22 02:30:53;;;;;;;6.25;2.42;;;15.80;99.90;;;;;;5087784;28;20036;-56
2022/07/22 02:33:19;;;;;;;7.80;2.60;;;15.80;99.90;;;;;;5086916;28;20043;-55
2022/07/22 02:35:45;;;;;;;7.68;2.58;;;15.70;99.90;;;;;;5083762;28;20043;-56
2022/07/22 02:40:43;;;;;;;9.32;2.38;;;15.70;99.90;;;;;;5090132;22;20061;-71
2022/07/22 02:43:09;;;;;;;9.57;2.40;;;15.70;99.90;;;;;;5044115;28;20414;-71
2022/07/22 02:45:34;;;;;;;7.43;2.67;;;15.60;99.90;;;;;;5042141;28;20173;-71
2022/07/22 02:48:00;;;;;;;6.07;2.40;;;15.60;99.90;;;;;;5043459;28;20094;-71
2022/07/22 02:50:26;;;;;;;10.10;2.60;;;15.70;99.90;;;;;;5047670;28;20037;-70
2022/07/22 02:52:52;;;;;;;11.48;2.60;;;15.60;99.90;;;;;;5046837;28;20053;-72
2022/07/22 02:55:18;;;;;;;8.00;2.42;;;15.70;99.90;;;;;;5047856;28;20037;-71
2022/07/22 02:57:45;;;;;;;9.23;3.08;;;15.70;99.90;;;;;;5049536;28;20430;-73
2022/07/22 03:00:12;;;;;;;11.50;2.92;;;15.60;99.90;;;;;;5033328;28;20437;-72
2022/07/22 03:02:38;;;;;;;10.80;2.83;;;15.60;99.90;;;;;;5045656;28;20040;-73
2022/07/22 03:05:05;;;;;;;8.32;2.22;;;15.60;99.90;;;;;;5046393;28;20102;-73
2022/07/22 03:07:30;;;;;;;7.90;2.67;;;15.60;99.90;;;;;;5048214;28;20529;-73
2022/07/22 03:09:57;;;;;;;8.38;2.40;;;15.70;99.90;;;;;;5050344;28;20048;-72
2022/07/22 03:12:23;;;;;;;9.23;2.30;;;15.60;99.90;;;;;;5058304;28;20164;-72
2022/07/22 03:14:49;;;;;;;9.15;2.38;;;15.60;99.90;;;;;;5047197;28;20391;-72
2022/07/22 03:17:15;;;;;;;8.80;2.47;;;15.70;99.90;;;;;;5047651;28;20033;-73
2022/07/22 03:19:41;;;;;;;8.57;2.45;;;15.70;99.90;;;;;;5047964;28;20048;-72
2022/07/22 03:22:07;;;;;;;8.73;2.25;;;15.70;99.90;;;;;;5046282;28;20045;-72
2022/07/22 03:24:33;;;;;;;7.20;2.42;;;15.70;99.90;;;;;;5052944;28;20055;-71
2022/07/22 03:27:00;;;;;;;6.85;2.40;;;15.70;99.90;;;;;;5051399;28;20045;-72
2022/07/22 03:29:25;;;;;;;5.65;2.05;;;15.70;99.90;;;;;;5052926;28;20076;-72
2022/07/22 03:31:51;;;;;;;7.28;2.40;;;15.70;99.90;;;;;;5049495;28;20130;-72
2022/07/22 03:34:17;;;;;;;7.50;2.63;;;15.70;99.90;;;;;;5051777;28;20201;-73
2022/07/22 03:36:42;;;;;;;8.73;2.50;;;15.70;99.90;;;;;;5051969;28;20044;-72
2022/07/22 03:39:08;;;;;;;6.85;2.28;;;15.70;99.90;;;;;;5062045;28;20443;-72
2022/07/22 03:41:33;;;;;;;7.20;2.40;;;15.70;99.90;;;;;;5071655;28;20032;-72
2022/07/22 03:43:59;;;;;;;8.32;2.58;;;15.70;99.90;;;;;;5072552;28;20044;-73
2022/07/22 03:46:24;;;;;;;6.45;2.50;;;15.70;99.90;;;;;;5068225;28;20515;-73
2022/07/22 03:48:50;;;;;;;7.85;2.30;;;15.70;99.90;;;;;;5073690;28;20147;-73
2022/07/22 03:51:16;;;;;;;8.20;2.38;;;15.70;99.90;;;;;;5064600;28;20082;-72
2022/07/22 03:53:41;;;;;;;6.53;2.25;;;15.70;99.90;;;;;;5073331;28;20041;-70
2022/07/22 03:56:07;;;;;;;8.38;2.30;;;15.70;99.90;;;;;;5071187;28;20102;-70
2022/07/22 03:58:32;;;;;;;10.23;2.20;;;15.80;99.90;;;;;;5072960;28;20040;-70
2022/07/22 04:00:58;;;;;;;6.65;2.03;;;15.80;99.90;;;;;;5071259;28;20187;-72
2022/07/22 04:03:23;;;;;;;7.60;2.80;;;15.80;99.90;;;;;;5074200;28;20509;-71
2022/07/22 04:05:49;;;;;;;7.30;2.88;;;15.80;99.90;;;;;;5067513;28;20109;-71
2022/07/22 04:08:18;;;;;;;6.18;2.03;;;15.80;99.90;;;;;;5071257;28;20051;-71
2022/07/22 04:10:44;;;;;;;9.88;2.70;;;15.70;99.90;;;;;;5072313;28;20046;-71
2022/07/22 04:13:10;;;;;;;7.80;2.30;;;15.70;99.90;;;;;;5071509;28;20467;-71
2022/07/22 04:15:36;;;;;;;6.57;2.10;;;16.00;99.90;;;;;;5066336;28;20036;-70
2022/07/22 04:18:01;;;;;;;8.23;2.05;;;15.80;99.90;;;;;;5073619;28;20181;-70
2022/07/22 04:20:27;;;;;;;6.65;2.13;;;15.90;99.90;;;;;;5071662;28;20044;-71
2022/07/22 04:22:53;;;;;;;6.82;2.20;;;15.90;99.90;;;;;;5065633;28;20557;-71
2022/07/22 04:25:19;;;;;;;8.70;2.28;;;15.80;99.90;;;;;;5067957;28;20079;-71
2022/07/22 04:27:45;;;;;;;10.15;2.67;;;15.90;99.90;;;;;;5066943;28;20040;-69
2022/07/22 04:30:11;;;;;;;7.38;2.47;;;15.90;99.90;;;;;;5072520;28;20049;-70
2022/07/22 04:32:37;;;;;;;4.78;2.20;;;15.90;99.90;;;;;;5067612;28;20039;-70
2022/07/22 04:35:03;;;;;;;5.78;2.47;;;15.90;99.90;;;;;;5071032;28;20048;-70
2022/07/22 04:37:29;;;;;;;6.32;1.95;;;16.10;99.90;;;;;;5069172;28;20103;-71
2022/07/22 04:39:55;;;;;;;7.43;2.00;;;16.10;99.90;;;;;;5073011;28;20083;-70
2022/07/22 04:42:20;;;;;;;8.20;2.47;;;16.10;99.90;;;;;;5071329;28;20072;-70
2022/07/22 04:44:46;;;;;;;7.85;2.42;;;16.00;99.90;;;;;;5068472;28;20041;-70
2022/07/22 04:47:12;;;;;;;6.45;2.50;;;16.00;99.90;;;;;;5065611;28;20153;-72
2022/07/22 04:49:37;;;;;;;10.93;2.50;;;16.00;99.90;;;;;;5070116;28;20036;-71
2022/07/22 04:52:03;;;;;;;7.50;2.40;;;16.00;99.90;;;;;;5072038;28;20045;-71
2022/07/22 04:54:29;;;;;;;9.85;2.30;;;16.00;99.90;;;;;;5071154;28;20173;-69
2022/07/22 04:56:55;;;;;;;7.85;2.30;;;16.00;99.90;;;;;;5073191;28;20171;-70
2022/07/22 04:59:20;;;;;;;5.78;1.75;;;16.10;99.90;;;;;;5071480;28;20047;-70
2022/07/22 05:01:46;;;;;;;6.07;2.55;;;16.10;99.90;;;;;;5073123;28;20033;-70
2022/07/22 05:04:11;;;;;;;5.15;2.10;;;16.10;99.90;;;;;;5077144;28;20052;-70
2022/07/22 05:06:37;;;;;;;7.75;2.35;;;16.10;99.90;;;;;;5070446;28;20036;-70
2022/07/22 05:09:03;;;;;;;7.85;2.50;;;16.10;99.90;;;;;;5072074;28;20044;-70
2022/07/22 05:11:29;;;;;;;7.97;2.08;;;16.10;99.90;;;;;;5070705;28;20514;-70
2022/07/22 05:13:54;;;;;;;6.05;2.10;;;16.10;99.90;;;;;;5070285;28;20128;-70
2022/07/22 05:16:20;;;;;;;7.70;1.98;;;16.20;99.90;;;;;;5069601;28;20051;-70
2022/07/22 05:18:45;;;;;;;7.72;2.13;;;16.20;99.90;;;;;;5071589;28;20076;-70
2022/07/22 05:21:11;;;;;;;9.15;2.03;;;16.20;99.90;;;;;;5069623;28;20385;-70
2022/07/22 05:23:37;;;;;;;5.60;1.90;;;16.30;99.90;;;;;;5068310;28;20055;-70
2022/07/22 05:26:04;;;;;;;5.47;1.85;;;16.30;99.90;;;;;;5068464;28;20124;-70
2022/07/22 05:28:30;;;;;;;5.93;2.05;;;16.30;99.90;;;;;;5070751;28;20090;-71
2022/07/22 05:30:55;;;;;;;6.95;2.13;;;16.40;99.90;;;;;;5070038;28;20049;-71
2022/07/22 05:33:21;;;;;;;5.75;1.85;;;16.50;99.90;;;;;;5069539;28;20508;-72
2022/07/22 05:35:46;;;;;;;7.70;2.40;;;16.60;99.90;;;;;;5069655;28;20103;-72
2022/07/22 05:38:12;;;;;;;6.32;2.00;;;16.50;99.90;;;;;;5071754;28;20052;-71
2022/07/22 05:40:38;;;;;;;12.38;3.00;;;16.50;99.90;;;;;;5070488;28;20048;-71
2022/07/22 05:43:03;;;;;;;4.85;1.85;;;16.60;99.90;;;;;;5065693;28;20040;-71
2022/07/22 05:45:29;;;;;;;3.95;1.73;;;16.40;99.90;;;;;;5068019;28;20044;-71
2022/07/22 05:47:55;;;;;;;5.72;1.98;;;16.50;99.90;;;;;;5068749;28;20044;-71
2022/07/22 05:50:20;;;;;;;6.00;2.05;;;16.70;99.90;;;;;;5070701;28;20044;-71
2022/07/22 05:52:46;;;;;;;8.30;2.10;;;16.50;99.90;;;;;;5071286;28;20037;-71
2022/07/22 05:55:11;;;;;;;6.68;2.20;;;16.70;99.90;;;;;;5067824;28;20040;-71
2022/07/22 05:57:37;;;;;;;5.97;2.03;;;16.50;99.90;;;;;;5068139;28;20044;-71
2022/07/22 06:00:04;;;;;;;5.85;1.98;;;16.70;99.90;;;;;;5067714;28;20063;-72
2022/07/22 06:02:30;;;;;;;5.40;2.10;;;16.60;99.90;;;;;;5064662;28;20051;-71
2022/07/22 06:04:56;;;;;;;5.18;1.80;;;16.80;99.90;;;;;;5067565;28;20115;-70
2022/07/22 06:07:21;;;;;;;4.53;2.20;;;16.70;99.90;;;;;;5065655;28;20044;-71
2022/07/22 06:09:47;;;;;;;4.18;1.80;;;16.70;99.90;;;;;;5069971;28;20080;-70
2022/07/22 06:12:12;;;;;;;6.97;2.10;;;16.70;99.90;;;;;;5068164;28;20400;-70
2022/07/22 06:14:38;;;;;;;7.47;1.98;;;16.80;99.90;;;;;;5068440;28;20064;-70
2022/07/22 06:17:04;;;;;;;5.90;1.88;;;16.90;99.90;;;;;;5070649;28;20570;-71
2022/07/22 06:19:29;;;;;;;4.32;1.80;;;16.90;99.90;;;;;;5065157;28;20461;-71
2022/07/22 06:21:56;;;;;;;4.82;1.88;;;16.90;99.90;;;;;;5068241;28;20040;-72
2022/07/22 06:24:21;;;;;;;6.35;2.10;;;17.00;99.90;;;;;;5069426;28;20044;-71
2022/07/22 06:26:47;;;;;;;7.65;2.17;;;;;;;;;;5067523;28;20123;-72
2022/07/22 06:29:14;;;;;;;3.78;1.77;;;17.40;99.90;;;;;;5068907;28;20111;-71
2022/07/22 06:31:39;;;;;;;8.25;2.05;;;17.30;99.90;;;;;;5060882;28;20464;-70
2022/07/22 06:34:05;;;;;;;4.93;1.65;;;17.30;99.90;;;;;;5069714;28;20032;-70
2022/07/22 06:36:32;;;;;;;4.93;1.92;;;17.40;99.90;;;;;;5069115;28;20322;-70
2022/07/22 06:38:57;;;;;;;7.35;2.13;;;17.70;99.90;;;;;;5065421;28;20475;-70
2022/07/22 06:41:23;;;;;;;4.55;1.90;;;17.50;99.90;;;;;;5065539;28;20079;-70
2022/07/22 06:43:48;;;;;;;7.50;2.00;;;17.60;99.90;;;;;;5066154;28;20043;-71
2022/07/22 06:46:14;;;;;;;3.97;1.60;;;17.80;99.90;;;;;;5064156;28;20125;-70
2022/07/22 06:48:40;;;;;;;3.45;1.48;;;17.80;99.90;;;;;;5076256;28;20037;-69
2022/07/22 06:51:05;;;;;;;4.78;2.13;;;17.90;99.90;;;;;;5076936;28;20055;-72
2022/07/22 06:53:32;;;;;;;5.75;2.00;;;18.00;99.90;;;;;;5069965;28;20541;-70
2022/07/22 06:55:58;;;;;;;4.03;1.50;;;18.20;99.90;;;;;;5069051;28;20111;-70
2022/07/22 06:58:23;;;;;;;9.93;1.67;;;18.20;99.90;;;;;;5072342;28;20370;-70
2022/07/22 07:00:49;;;;;;;5.53;1.50;;;18.10;99.90;;;;;;5052664;28;20044;-69
2022/07/22 07:03:15;;;;;;;5.93;1.58;;;18.00;99.90;;;;;;5071907;28;20215;-71
2022/07/22 07:05:40;;;;;;;3.40;1.45;;;18.20;99.90;;;;;;5071728;28;20083;-69
2022/07/22 07:08:06;;;;;;;6.22;1.98;;;18.10;99.90;;;;;;5074264;28;20044;-69
2022/07/22 07:10:31;;;;;;;5.93;1.83;;;18.30;99.90;;;;;;5072497;28;20095;-68
2022/07/22 07:12:58;;;;;;;5.40;1.80;;;18.30;99.90;;;;;;5068851;28;20098;-70
2022/07/22 07:15:27;;;;;;;4.57;1.35;;;18.30;99.90;;;;;;5070714;28;20103;-69
2022/07/22 07:17:55;;;;;;;3.40;1.30;;;18.40;99.90;;;;;;5074055;28;20051;-69
2022/07/22 07:20:21;;;;;;;4.82;1.63;;;18.40;99.90;;;;;;5069584;28;20063;-71
2022/07/22 07:22:47;;;;;;;6.05;1.60;;;18.40;99.90;;;;;;5063304;28;20067;-69
2022/07/22 07:25:14;;;;;;;4.45;1.40;;;18.50;99.90;;;;;;5065310;28;20167;-69
2022/07/22 07:27:40;;;;;;;4.20;1.58;;;18.40;99.90;;;;;;5061357;28;20149;-69
2022/07/22 07:30:08;;;;;;;6.13;1.77;;;18.30;99.90;;;;;;5064976;28;20462;-68
2022/07/22 07:32:34;;;;;;;3.55;1.50;;;18.50;99.90;;;;;;5067742;28;20120;-67
2022/07/22 07:35:01;;;;;;;4.38;1.40;;;18.70;99.90;;;;;;5070238;28;20060;-69
2022/07/22 07:37:26;;;;;;;4.80;1.60;;;18.30;99.90;;;;;;5064087;28;20052;-67
2022/07/22 07:39:52;;;;;;;4.63;1.60;;;18.20;99.90;;;;;;5068497;28;20571;-68
2022/07/22 07:42:18;;;;;;;3.25;1.48;;;18.20;99.90;;;;;;5066705;28;20044;-73
2022/07/22 07:44:43;;;;;;;6.50;1.88;;;18.40;99.90;;;;;;5062740;28;20059;-67
2022/07/22 07:47:09;;;;;;;4.28;1.50;;;18.40;99.90;;;;;;5064119;28;20569;-70
2022/07/22 07:49:34;;;;;;;4.22;1.50;;;18.40;99.90;;;;;;5068391;28;20041;-69
2022/07/22 07:52:00;;;;;;;4.68;2.17;;;18.40;99.90;;;;;;5064853;28;20498;-69
2022/07/22 07:54:26;;;;;;;3.20;1.98;;;18.30;99.90;;;;;;5070123;28;20036;-68
2022/07/22 07:56:51;;;;;;;5.80;1.50;;;18.40;99.90;;;;;;5072348;28;20036;-68
2022/07/22 07:59:18;;;;;;;9.60;1.65;;;18.20;99.90;;;;;;5060938;28;20083;-69
2022/07/22 08:01:43;;;;;;;4.70;1.40;;;18.20;99.90;;;;;;5068471;28;20067;-68
2022/07/22 08:04:09;;;;;;;3.95;1.80;;;18.30;99.90;;;;;;5070176;28;20068;-69
2022/07/22 08:06:35;;;;;;;4.75;1.40;;;18.10;99.90;;;;;;5070747;28;20036;-69
2022/07/22 08:09:00;;;;;;;3.58;1.65;;;18.20;99.90;;;;;;5066985;28;20033;-68
2022/07/22 08:11:26;;;;;;;4.32;1.38;;;18.20;99.90;;;;;;5063986;28;20527;-68
2022/07/22 08:13:51;;;;;;;5.68;1.30;;;18.40;99.90;;;;;;5055813;28;20051;-69
2022/07/22 08:16:17;;;;;;;3.95;1.50;;;18.40;99.90;;;;;;5067647;28;20119;-69
2022/07/22 08:18:43;;;;;;;5.25;1.42;;;18.50;99.90;;;;;;5061804;28;20041;-68
2022/07/22 08:21:08;;;;;;;2.60;1.40;;;18.40;99.90;;;;;;5065154;28;20490;-68
2022/07/22 08:23:34;;;;;;;5.97;1.70;;;18.40;99.90;;;;;;5068467;28;20039;-69
2022/07/22 08:26:00;;;;;;;4.25;1.60;;;18.30;99.90;;;;;;5071112;28;20039;-69
2022/07/22 08:28:26;;;;;;;5.20;1.50;;;18.40;99.90;;;;;;5067455;28;20064;-69
2022/07/22 08:30:52;;;;;;;3.63;1.23;;;18.50;99.90;;;;;;5067274;28;20550;-68
2022/07/22 08:33:17;;;;;;;4.70;1.35;;;18.80;99.90;;;;;;5064332;28;20059;-68
2022/07/22 08:35:43;;;;;;;4.18;1.17;;;19.00;99.90;;;;;;5065640;28;20424;-69
2022/07/22 08:38:09;;;;;;;4.13;1.45;;;18.90;99.90;;;;;;5065760;28;20024;-69
2022/07/22 08:40:35;;;;;;;4.00;1.15;;;19.00;99.90;;;;;;5061301;28;20059;-68
2022/07/22 08:43:02;;;;;;;5.60;1.30;;;19.20;99.90;;;;;;5066172;28;20076;-68
2022/07/22 08:45:28;;;;;;;;;;;19.30;99.90;;;;;;5068983;28;20041;-69
2022/07/22 08:47:54;;;;;;;4.10;1.50;;;19.60;99.90;;;;;;5067391;28;20038;-68
2022/07/22 08:50:20;;;;;;;5.72;1.45;;;19.70;99.90;;;;;;5068552;28;20052;-70
2022/07/22 08:52:45;;;;;;;3.28;1.10;;;19.70;99.90;;;;;;5065807;28;20143;-69
2022/07/22 08:55:13;;;;;;;6.28;1.80;;;;;;;;;;5062726;28;20124;-69
2022/07/22 08:57:44;;;;;;;1.98;1.00;;;;;;;;;;5067382;28;20045;-69
2022/07/22 09:00:11;;;;;;;4.75;1.38;;;;;;;;;;5066613;28;20123;-69
2022/07/22 09:02:39;;;;;;;4.13;1.08;;;;;;;;;;5069419;28;20638;-69
2022/07/22 09:05:06;;;;;;;4.10;1.20;;;;;;;;;;5067744;28;20044;-69
2022/07/22 09:07:34;;;;;;;3.10;1.27;;;;;;;;;;5067512;28;20576;-69
2022/07/22 09:10:00;;;;;;;2.85;1.20;;;;;;;;;;5063183;28;20053;-69
2022/07/22 09:12:31;;;;;;;2.55;1.00;;;;;;;;;;5067325;28;20063;-69
2022/07/22 09:14:59;;;;;;;5.20;1.13;;;;;;;;;;5065491;28;20053;-69
2022/07/22 09:17:35;;;;;;;6.30;1.20;;;;;;;;;;5065212;28;20044;-70
2022/07/22 09:20:02;;;;;;;3.40;1.30;;;;;;;;;;5063265;28;20182;-68
2022/07/22 09:22:39;;;;;;;4.18;1.42;;;;;;;;;;5065475;28;20041;-69
2022/07/22 09:25:25;;;;;;;3.63;1.40;;;;;;;;;;5062645;28;20047;-70
2022/07/22 09:27:52;;;;;;;4.07;1.30;;;20.20;99.90;;;;;;5059285;28;20508;-68
2022/07/22 09:30:23;;;;;;;2.40;1.15;;;20.20;99.90;;;;;;5067917;28;20055;-68
2022/07/22 09:32:50;;;;;;;4.68;1.35;;;20.20;99.90;;;;;;5064610;28;20072;-69
2022/07/22 09:35:16;;;;;;;4.65;1.10;;;20.40;99.90;;;;;;5068899;28;20051;-68
2022/07/22 09:37:59;;;;;;;5.30;1.38;;;20.50;99.90;;;;;;5061202;28;20090;-68
2022/07/22 09:40:37;;;;;;;2.75;1.20;;;20.60;99.90;;;;;;5061416;28;20530;-68
2022/07/22 09:43:12;;;;;;;3.80;1.20;;;20.70;99.90;;;;;;5064427;28;20057;-68
2022/07/22 09:45:53;;;;;;;2.67;1.20;;;20.80;99.90;;;;;;5063881;28;20090;-69
2022/07/22 09:48:21;;;;;;;2.50;1.10;;;20.80;99.90;;;;;;5073496;28;20426;-68
2022/07/22 09:50:48;;;;;;;3.03;1.10;;;20.70;99.90;;;;;;5066339;28;20400;-68
2022/07/22 09:53:15;;;;;;;2.73;1.00;;;20.60;99.90;;;;;;5071170;28;20093;-68
2022/07/22 09:55:41;;;;;;;4.05;1.20;;;20.50;99.90;;;;;;5071020;28;20113;-68
2022/07/22 09:58:07;;;;;;;2.55;1.10;;;20.60;99.90;;;;;;5068111;28;20041;-68
2022/07/22 10:00:34;;;;;;;3.28;1.20;;;20.60;99.90;;;;;;5072205;28;20193;-68
2022/07/22 10:03:03;;;;;;;3.47;1.17;;;20.40;99.90;;;;;;5067217;28;20040;-68
2022/07/22 10:05:32;;;;;;;3.88;1.25;;;20.40;99.90;;;;;;5069318;28;20032;-68
2022/07/22 10:08:01;;;;;;;3.83;1.30;;;20.30;99.90;;;;;;5065624;28;20097;-68
2022/07/22 10:10:28;;;;;;;2.47;1.08;;;20.10;99.90;;;;;;5070551;28;20037;-68
2022/07/22 10:12:54;;;;;;;;;;;20.20;99.90;;;;;;5070838;28;20044;-69
2022/07/22 10:15:21;;;;;;;3.97;1.27;;;20.30;99.90;;;;;;5066311;28;19943;-67
2022/07/22 10:17:49;;;;;;;4.18;1.20;;;20.30;99.90;;;;;;5076503;28;20484;-67
2022/07/22 10:20:23;;;;;;;3.58;1.40;;;20.50;99.90;;;;;;5075968;28;20028;-69
2022/07/22 10:22:53;;;;;;;5.00;1.30;;;20.60;99.90;;;;;;5078771;28;20036;-67
2022/07/22 10:25:22;;;;;;;5.35;1.30;;;20.30;99.90;;;;;;5071085;28;20059;-67
2022/07/22 10:27:58;;;;;;;4.43;1.65;;;20.40;99.90;;;;;;5084600;28;20416;-67
2022/07/22 10:30:35;;;;;;;4.80;1.70;;;20.30;99.90;;;;;;5079533;28;20490;-67
2022/07/22 10:33:04;;;;;;;4.38;1.23;;;20.10;99.90;;;;;;5079205;28;20042;-68
2022/07/22 10:35:31;;;;;;;5.57;1.50;;;20.00;99.90;;;;;;5075837;28;20036;-68
2022/07/22 10:38:00;;;;;;;3.95;1.25;;;19.90;99.90;;;;;;5075918;28;20043;-68
2022/07/22 10:40:28;;;;;;;3.78;1.33;;;20.00;99.90;;;;;;5075463;28;20079;-68
2022/07/22 10:42:57;;;;;;;6.07;1.42;;;20.30;99.90;;;;;;5072976;28;20040;-69
2022/07/22 10:45:24;;;;;;;4.32;1.50;;;20.70;99.90;;;;;;5075893;28;20040;-68
2022/07/22 10:48:42;;;;;;;3.20;1.25;;;21.00;99.90;;;;;;5075521;28;20447;-68
2022/07/22 10:51:10;;;;;;;2.58;1.08;;;21.40;99.90;;;;;;5048608;28;20048;-68
2022/07/22 10:53:41;;;;;;;1.05;0.90;;;21.70;99.90;;;;;;5074775;28;20568;-68
2022/07/22 10:56:29;;;;;;;3.42;1.05;;;22.20;99.90;;;;;;5076301;28;20136;-69
2022/07/22 10:59:07;;;;;;;1.73;0.95;;;22.70;99.90;;;;;;5080803;28;20036;-69
2022/07/22 11:01:33;;;;;;;2.72;0.93;;;23.10;99.90;;;;;;5079582;28;20050;-68
2022/07/22 11:04:15;;;;;;;2.55;1.13;;;23.40;99.90;;;;;;5083644;28;20119;-68
2022/07/22 11:06:41;;;;;;;2.25;1.00;;;22.70;99.90;;;;;;5095387;28;20046;-68
2022/07/22 11:09:09;;;;;;;3.42;1.10;;;22.70;99.90;;;;;;5080662;28;20135;-68
2022/07/22 11:11:38;;;;;;;3.83;1.08;;;22.90;99.90;;;;;;5078770;28;20048;-69
2022/07/22 11:14:14;;;;;;;2.83;1.10;;;22.90;99.90;;;;;;5082724;28;20055;-69
2022/07/22 11:16:39;;;;;;;2.67;1.20;;;22.70;99.90;;;;;;5077813;28;20047;-68
2022/07/22 11:19:05;;;;;;;2.85;1.10;;;21.90;99.90;;;;;;5078793;28;20037;-69
2022/07/22 11:21:32;;;;;;;5.05;1.27;;;;;;;;;;5073472;28;20114;-70
2022/07/22 11:24:01;;;;;;;3.90;1.20;;;;;;;;;;5075546;28;20089;-69
2022/07/22 11:26:40;;;;;;;4.60;1.40;;;22.50;99.90;;;;;;5080863;28;20044;-68
2022/07/22 11:29:06;;;;;;;3.35;1.23;;;22.50;99.90;;;;;;5069573;28;20045;-69
2022/07/22 11:31:31;;;;;;;2.10;1.13;;;22.50;99.90;;;;;;5070467;28;20048;-68
2022/07/22 11:34:12;;;;;;;2.30;1.20;;;22.20;99.90;;;;;;5071250;28;20122;-69
2022/07/22 11:36:40;;;;;;;4.22;1.23;;;22.10;99.90;;;;;;5074827;28;20054;-68
2022/07/22 11:39:07;;;;;;;5.43;1.00;;;22.10;99.90;;;;;;5074338;28;20071;-69
2022/07/22 11:41:33;;;;;;;3.80;0.88;;;;;;;;;;5072153;28;20083;-70
2022/07/22 11:44:00;;;;;;;3.63;1.10;;;21.50;99.90;;;;;;5071642;28;20047;-69
2022/07/22 11:46:26;;;;;;;3.78;1.20;;;21.30;99.90;;;;;;5074166;28;20128;-68
2022/07/22 11:48:53;;;;;;;1.83;1.00;;;21.30;99.90;;;;;;5072705;28;20045;-68
2022/07/22 11:51:19;;;;;;;2.85;1.20;;;21.30;99.90;;;;;;5075124;28;20090;-67
2022/07/22 11:53:45;;;;;;;3.60;1.30;;;21.30;99.90;;;;;;5071378;28;20086;-68
2022/07/22 11:56:11;;;;;;;4.82;1.50;;;21.00;99.90;;;;;;5074907;28;20116;-69
2022/07/22 11:58:49;;;;;;;2.75;1.10;;;20.80;99.90;;;;;;5056631;28;20055;-69
2022/07/22 12:01:16;;;;;;;2.92;1.40;;;20.90;99.90;;;;;;5076350;28;20049;-69
2022/07/22 12:03:46;;;;;;;4.78;1.30;;;20.90;99.90;;;;;;5077605;28;20036;-69
2022/07/22 12:06:15;;;;;;;1.95;1.25;;;20.90;99.90;;;;;;5084666;28;20404;-69
2022/07/22 12:08:43;;;;;;;3.17;1.20;;;21.00;99.90;;;;;;5081730;28;20404;-68
2022/07/22 12:11:15;;;;;;;3.47;1.45;;;21.20;99.90;;;;;;5091569;28;20435;-68
2022/07/22 12:13:43;;;;;;;7.07;1.58;;;21.30;99.90;;;;;;5076688;28;20044;-67
2022/07/22 12:16:19;;;;;;;4.47;1.42;;;20.90;99.90;;;;;;5066071;28;20045;-67
2022/07/22 12:19:00;;;;;;;4.57;1.20;;;20.60;99.90;;;;;;5075063;28;20044;-69
2022/07/22 12:21:29;;;;;;;2.90;1.60;;;20.60;99.90;;;;;;5068115;28;20132;-73
2022/07/22 12:24:04;;;;;;;3.33;1.40;;;20.60;99.90;;;;;;5070906;28;20029;-70
2022/07/22 12:26:41;;;;;;;3.60;1.42;;;20.40;99.90;;;;;;5071972;28;20036;-68
2022/07/22 12:29:17;;;;;;;3.72;1.20;;;20.20;99.90;;;;;;5077711;28;20076;-69
2022/07/22 12:31:51;;;;;;;3.15;1.40;;;20.00;99.90;;;;;;5071683;28;20043;-68
2022/07/22 12:34:28;;;;;;;5.22;1.63;;;20.30;99.90;;;;;;5074425;28;20508;-68
2022/07/22 12:36:53;;;;;;;3.47;1.70;;;20.50;99.90;;;;;;5056855;28;20496;-67
2022/07/22 12:39:19;;;;;;;3.70;1.52;;;20.50;99.90;;;;;;5073559;28;20072;-68
2022/07/22 12:41:47;;;;;;;4.45;1.50;;;20.60;99.90;;;;;;5076603;28;20037;-68
2022/07/22 12:44:24;;;;;;;3.03;1.52;;;20.40;99.90;;;;;;5071996;28;20040;-67
2022/07/22 12:46:56;;;;;;;4.95;1.55;;;20.40;99.90;;;;;;5075889;28;20052;-67
2022/07/22 12:49:24;;;;;;;6.63;1.70;;;20.50;99.90;;;;;;5069994;28;20040;-67
2022/07/22 12:52:09;;;;;;;4.57;1.80;;;20.50;99.90;;;;;;5077185;28;20504;-69
2022/07/22 12:54:36;;;;;;;3.95;1.83;;;20.70;99.90;;;;;;5072790;28;20045;-67
2022/07/22 12:57:02;;;;;;;2.27;1.73;;;20.40;99.90;;;;;;5081192;28;20044;-67